createdAt,value
2018-05-23T00:00:16.125Z,16.56
2018-05-23T00:02:43.748Z,16.50
2018-05-23T00:05:11.427Z,16.55
2018-05-23T00:07:39.074Z,16.46
2018-05-23T00:10:07.704Z,16.44
2018-05-23T00:12:35.312Z,16.41
2018-05-23T00:15:02.928Z,16.39
2018-05-23T00:17:30.693Z,16.44
2018-05-23T00:19:58.387Z,16.45
2018-05-23T00:22:26.073Z,16.42
2018-05-23T00:24:53.825Z,16.38
2018-05-23T00:27:21.601Z,16.36
2018-05-23T00:29:49.263Z,16.32
2018-05-23T00:32:16.957Z,16.30
2018-05-23T00:34:44.569Z,16.33
2018-05-23T00:37:15.013Z,16.34
2018-05-23T00:39:43.620Z,16.36
2018-05-23T00:42:11.334Z,16.42
2018-05-23T00:44:38.956Z,16.42
2018-05-23T00:47:06.556Z,16.40
2018-05-23T00:49:34.212Z,16.41
2018-05-23T00:52:01.874Z,16.43
2018-05-23T00:54:29.441Z,16.44
2018-05-23T00:56:57.404Z,16.45
2018-05-23T00:59:25.088Z,16.45
2018-05-23T01:01:52.682Z,16.47
2018-05-23T01:04:20.318Z,16.48
2018-05-23T01:06:47.992Z,16.46
2018-05-23T01:09:15.751Z,16.39
2018-05-23T01:11:43.308Z,16.34
2018-05-23T01:14:10.937Z,16.24
2018-05-23T01:16:38.532Z,16.11
2018-05-23T01:19:07.034Z,16.04
2018-05-23T01:21:34.673Z,15.96
2018-05-23T01:24:02.304Z,15.90
2018-05-23T01:26:30.985Z,15.83
2018-05-23T01:28:59.349Z,15.74
2018-05-23T01:31:26.925Z,15.69
2018-05-23T01:33:54.761Z,15.59
2018-05-23T01:36:22.362Z,15.49
2018-05-23T01:38:49.956Z,15.46
2018-05-23T01:41:17.837Z,15.44
2018-05-23T01:43:45.469Z,15.45
2018-05-23T01:46:13.162Z,15.52
2018-05-23T01:48:52.682Z,15.53
2018-05-23T01:51:20.342Z,15.56
2018-05-23T01:53:47.901Z,15.57
2018-05-23T01:56:15.572Z,15.59
2018-05-23T01:58:43.980Z,15.58
2018-05-23T02:01:11.649Z,15.60
2018-05-23T02:03:39.253Z,15.61
2018-05-23T02:06:06.927Z,15.64
2018-05-23T02:08:34.580Z,15.65
2018-05-23T02:11:02.212Z,15.64
2018-05-23T02:13:29.880Z,15.59
2018-05-23T02:15:57.602Z,15.55
2018-05-23T02:18:25.249Z,15.48
2018-05-23T02:20:52.829Z,15.41
2018-05-23T02:23:22.024Z,15.37
2018-05-23T02:25:49.738Z,15.31
2018-05-23T02:28:17.348Z,15.30
2018-05-23T02:30:45.812Z,15.28
2018-05-23T02:33:13.418Z,15.28
2018-05-23T02:35:41.067Z,15.26
2018-05-23T02:38:09.022Z,15.23
2018-05-23T02:40:36.829Z,15.21
2018-05-23T02:43:04.418Z,15.18
2018-05-23T02:45:31.981Z,15.15
2018-05-23T02:48:00.456Z,15.12
2018-05-23T02:50:28.147Z,15.10
2018-05-23T02:52:55.809Z,15.11
2018-05-23T02:55:23.460Z,15.14
2018-05-23T02:57:52.026Z,15.18
2018-05-23T03:00:19.642Z,15.23
2018-05-23T03:02:47.268Z,15.30
2018-05-23T03:05:14.998Z,15.32
2018-05-23T03:07:42.573Z,15.33
2018-05-23T03:10:10.206Z,15.33
2018-05-23T03:12:37.865Z,15.37
2018-05-23T03:15:08.372Z,15.39
2018-05-23T03:17:35.993Z,15.43
2018-05-23T03:20:03.690Z,15.49
2018-05-23T03:22:31.281Z,15.55
2018-05-23T03:24:59.131Z,15.61
2018-05-23T03:27:26.748Z,15.70
2018-05-23T03:29:54.489Z,15.77
2018-05-23T03:32:22.190Z,15.83
2018-05-23T03:34:50.691Z,15.93
2018-05-23T03:37:18.288Z,16.00
2018-05-23T03:39:45.877Z,16.10
2018-05-23T03:42:13.563Z,16.23
2018-05-23T03:44:41.240Z,16.38
2018-05-23T03:47:08.813Z,16.49
2018-05-23T03:49:36.457Z,16.65
2018-05-23T03:52:04.152Z,16.80
2018-05-23T03:54:31.885Z,16.97
2018-05-23T03:56:59.484Z,17.12
2018-05-23T03:59:38.820Z,17.32
2018-05-23T04:02:18.175Z,17.68
2018-05-23T04:04:58.396Z,18.11
2018-05-23T04:07:44.688Z,18.23
2018-05-23T04:10:12.442Z,18.53
2018-05-23T04:12:40.086Z,19.82
2018-05-23T04:15:07.834Z,21.84
2018-05-23T04:17:35.463Z,24.36
2018-05-23T04:20:03.142Z,27.01
2018-05-23T04:22:30.776Z,28.98
2018-05-23T04:24:58.399Z,30.44
2018-05-23T04:27:26.060Z,31.99
2018-05-23T04:29:53.715Z,32.80
2018-05-23T04:32:21.295Z,33.06
2018-05-23T04:34:48.864Z,33.66
2018-05-23T04:37:16.428Z,33.93
2018-05-23T04:39:44.007Z,34.48
2018-05-23T04:42:11.572Z,34.21
2018-05-23T04:44:39.266Z,34.11
2018-05-23T04:47:06.832Z,34.26
2018-05-23T04:49:34.497Z,34.33
2018-05-23T04:52:02.069Z,34.36
2018-05-23T04:54:29.697Z,34.78
2018-05-23T04:56:57.288Z,34.95
2018-05-23T04:59:25.082Z,35.65
2018-05-23T05:01:52.775Z,35.21
2018-05-23T05:04:20.458Z,35.11
2018-05-23T05:06:48.097Z,35.89
2018-05-23T05:09:16.495Z,35.44
2018-05-23T05:11:44.077Z,35.26
2018-05-23T05:14:11.710Z,36.02
2018-05-23T05:16:39.293Z,36.32
2018-05-23T05:19:06.916Z,36.31
2018-05-23T05:21:34.508Z,36.10
2018-05-23T05:24:02.153Z,35.61
2018-05-23T05:26:29.742Z,34.21
2018-05-23T05:28:57.317Z,35.51
2018-05-23T05:31:25.026Z,36.74
2018-05-23T05:33:52.680Z,36.38
2018-05-23T05:36:20.356Z,36.09
2018-05-23T05:38:48.236Z,36.57
2018-05-23T05:41:15.817Z,36.53
2018-05-23T05:43:43.546Z,35.87
2018-05-23T05:46:11.269Z,36.47
2018-05-23T05:48:38.849Z,36.02
2018-05-23T05:51:06.453Z,36.53
2018-05-23T05:53:34.065Z,36.54
2018-05-23T05:56:01.714Z,36.67
2018-05-23T05:58:29.340Z,36.57
2018-05-23T06:00:56.978Z,37.26
2018-05-23T06:03:24.754Z,37.06
2018-05-23T06:05:52.677Z,36.68
2018-05-23T06:08:20.349Z,36.19
2018-05-23T06:10:47.974Z,36.37
2018-05-23T06:13:15.594Z,36.64
2018-05-23T06:15:43.280Z,35.95
2018-05-23T06:18:10.950Z,36.07
2018-05-23T06:20:38.540Z,36.08
2018-05-23T06:23:06.245Z,35.79
2018-05-23T06:25:34.029Z,35.65
2018-05-23T06:28:01.677Z,35.58
2018-05-23T06:30:29.295Z,35.43
2018-05-23T06:32:56.877Z,35.74
2018-05-23T06:35:24.476Z,35.73
2018-05-23T06:37:52.194Z,34.80
2018-05-23T06:40:19.876Z,33.99
2018-05-23T06:42:47.508Z,33.34
2018-05-23T06:45:15.160Z,32.09
2018-05-23T06:47:42.809Z,31.57
2018-05-23T06:50:10.564Z,30.98
2018-05-23T06:52:38.287Z,29.91
2018-05-23T06:55:05.851Z,29.09
2018-05-23T06:57:33.418Z,29.01
2018-05-23T07:00:01.042Z,29.31
2018-05-23T07:02:28.694Z,29.90
2018-05-23T07:04:56.371Z,29.66
2018-05-23T07:07:23.956Z,29.47
2018-05-23T07:09:51.612Z,29.27
2018-05-23T07:12:19.192Z,28.74
2018-05-23T07:14:46.827Z,28.82
2018-05-23T07:17:14.404Z,29.24
2018-05-23T07:19:41.985Z,29.47
2018-05-23T07:22:09.735Z,29.55
2018-05-23T07:24:37.377Z,29.40
2018-05-23T07:27:05.022Z,29.34
2018-05-23T07:29:32.606Z,29.64
2018-05-23T07:32:00.205Z,29.56
2018-05-23T07:34:27.802Z,29.70
2018-05-23T07:36:55.433Z,29.75
2018-05-23T07:39:23.096Z,30.30
2018-05-23T07:41:50.664Z,30.39
2018-05-23T07:44:18.280Z,30.42
2018-05-23T07:46:45.985Z,30.41
2018-05-23T07:49:13.596Z,30.94
2018-05-23T07:51:41.228Z,31.26
2018-05-23T07:54:08.877Z,30.95
2018-05-23T07:56:36.710Z,30.69
2018-05-23T07:59:04.369Z,30.58
2018-05-23T08:01:31.960Z,30.36
2018-05-23T08:03:59.593Z,30.04
2018-05-23T08:06:27.256Z,29.78
2018-05-23T08:08:54.850Z,30.05
2018-05-23T08:11:22.505Z,30.59
2018-05-23T08:13:50.200Z,30.41
2018-05-23T08:16:17.805Z,29.98
2018-05-23T08:18:45.400Z,29.94
2018-05-23T08:21:12.974Z,29.83
2018-05-23T08:23:40.579Z,29.66
2018-05-23T08:26:08.222Z,29.72
2018-05-23T08:28:35.866Z,29.72
2018-05-23T08:31:04.376Z,29.75
2018-05-23T08:33:32.099Z,29.97
2018-05-23T08:35:59.693Z,30.05
2018-05-23T08:38:27.296Z,29.82
2018-05-23T08:40:54.885Z,29.83
2018-05-23T08:43:22.529Z,29.97
2018-05-23T08:45:51.091Z,29.90
2018-05-23T08:48:18.808Z,29.99
2018-05-23T08:50:46.428Z,29.91
2018-05-23T08:53:14.161Z,29.85
2018-05-23T08:55:41.900Z,29.84
2018-05-23T08:58:09.537Z,29.75
2018-05-23T09:00:37.130Z,29.84
2018-05-23T09:03:05.042Z,29.80
2018-05-23T09:05:39.496Z,29.83
2018-05-23T09:08:07.167Z,29.91
2018-05-23T09:10:34.744Z,29.80
2018-05-23T09:13:02.424Z,29.74
2018-05-23T09:15:30.139Z,29.90
2018-05-23T09:17:58.050Z,30.08
2018-05-23T09:20:25.625Z,30.09
2018-05-23T09:22:53.349Z,30.17
2018-05-23T09:25:21.810Z,30.14
2018-05-23T09:27:50.225Z,30.13
2018-05-23T09:30:17.839Z,30.13
2018-05-23T09:32:45.432Z,30.21
2018-05-23T09:35:13.131Z,30.28
2018-05-23T09:37:41.106Z,30.32
2018-05-23T09:40:08.815Z,30.42
2018-05-23T09:42:36.444Z,30.74
2018-05-23T09:45:04.226Z,31.11
2018-05-23T09:47:31.911Z,31.58
2018-05-23T09:49:59.509Z,31.99
2018-05-23T09:52:27.172Z,32.10
2018-05-23T09:54:54.873Z,32.25
2018-05-23T09:57:22.489Z,32.20
2018-05-23T09:59:50.096Z,32.17
2018-05-23T10:02:17.796Z,32.30
2018-05-23T10:04:45.431Z,32.69
2018-05-23T10:07:13.012Z,32.97
2018-05-23T10:09:40.644Z,33.44
2018-05-23T10:12:08.286Z,33.89
2018-05-23T10:14:35.860Z,33.63
2018-05-23T10:17:03.566Z,33.89
2018-05-23T10:19:31.213Z,33.76
2018-05-23T10:21:58.854Z,33.71
2018-05-23T10:24:26.501Z,33.72
2018-05-23T10:26:54.180Z,33.79
2018-05-23T10:29:21.777Z,33.96
2018-05-23T10:31:49.445Z,34.00
2018-05-23T10:34:17.033Z,34.40
2018-05-23T10:36:44.742Z,34.70
2018-05-23T10:39:12.412Z,35.09
2018-05-23T10:41:39.968Z,35.34
2018-05-23T10:44:07.653Z,35.77
2018-05-23T10:46:35.247Z,35.73
2018-05-23T10:49:02.876Z,35.70
2018-05-23T10:51:30.445Z,35.44
2018-05-23T10:53:58.169Z,35.14
2018-05-23T10:56:25.845Z,35.05
2018-05-23T10:58:53.482Z,35.22
2018-05-23T11:01:21.120Z,35.09
2018-05-23T11:03:48.692Z,35.46
2018-05-23T11:06:16.350Z,35.87
2018-05-23T11:08:43.937Z,36.65
2018-05-23T11:11:11.648Z,37.18
2018-05-23T11:13:39.287Z,37.15
2018-05-23T11:16:06.888Z,37.42
2018-05-23T11:18:34.525Z,37.50
2018-05-23T11:21:02.092Z,37.52
2018-05-23T11:23:29.765Z,37.64
2018-05-23T11:25:57.341Z,36.92
2018-05-23T11:28:24.933Z,37.00
2018-05-23T11:30:52.525Z,36.60
2018-05-23T11:33:20.147Z,35.96
2018-05-23T11:35:47.853Z,35.10
2018-05-23T11:38:15.456Z,35.53
2018-05-23T11:40:43.850Z,36.06
2018-05-23T11:43:11.425Z,37.12
2018-05-23T11:45:39.097Z,37.06
2018-05-23T11:48:06.777Z,37.48
2018-05-23T11:50:34.405Z,37.82
2018-05-23T11:53:02.100Z,37.97
2018-05-23T11:55:29.685Z,37.89
2018-05-23T11:57:57.375Z,37.64
2018-05-23T12:00:25.138Z,37.46
2018-05-23T12:02:52.861Z,37.92
2018-05-23T12:05:20.484Z,38.95
2018-05-23T12:07:48.082Z,39.89
2018-05-23T12:10:15.746Z,39.65
2018-05-23T12:12:43.437Z,39.12
2018-05-23T12:15:11.028Z,37.50
2018-05-23T12:17:39.856Z,35.66
2018-05-23T12:20:07.537Z,34.21
2018-05-23T12:22:35.148Z,33.64
2018-05-23T12:25:02.729Z,33.99
2018-05-23T12:27:30.526Z,34.27
2018-05-23T12:29:58.116Z,35.11
2018-05-23T12:32:25.727Z,36.68
2018-05-23T12:34:53.360Z,38.04
2018-05-23T12:37:20.916Z,39.10
2018-05-23T12:39:48.474Z,40.04
2018-05-23T12:42:16.062Z,40.99
2018-05-23T12:44:43.710Z,40.31
2018-05-23T12:47:11.362Z,39.30
2018-05-23T12:49:39.016Z,37.82
2018-05-23T12:52:06.709Z,36.78
2018-05-23T12:54:34.325Z,35.78
2018-05-23T12:57:01.929Z,35.00
2018-05-23T12:59:29.608Z,34.89
2018-05-23T13:01:57.736Z,35.90
2018-05-23T13:04:25.324Z,36.99
2018-05-23T13:06:52.909Z,37.10
2018-05-23T13:09:20.554Z,37.88
2018-05-23T13:11:48.167Z,38.86
2018-05-23T13:14:15.764Z,39.38
2018-05-23T13:16:43.422Z,40.22
2018-05-23T13:19:11.002Z,40.32
2018-05-23T13:21:38.600Z,40.04
2018-05-23T13:24:06.169Z,39.36
2018-05-23T13:26:33.816Z,37.88
2018-05-23T13:29:01.402Z,36.47
2018-05-23T13:31:28.985Z,34.69
2018-05-23T13:33:56.649Z,33.89
2018-05-23T13:36:24.213Z,32.96
2018-05-23T13:38:51.851Z,32.61
2018-05-23T13:41:19.457Z,33.18
2018-05-23T13:43:47.178Z,33.85
2018-05-23T13:46:14.842Z,34.08
2018-05-23T13:48:42.497Z,34.05
2018-05-23T13:51:10.124Z,33.28
2018-05-23T13:53:37.689Z,32.87
2018-05-23T13:56:05.321Z,32.52
2018-05-23T13:58:32.937Z,32.16
2018-05-23T14:01:00.645Z,31.87
2018-05-23T14:03:28.204Z,31.38
2018-05-23T14:05:55.765Z,31.12
2018-05-23T14:08:23.328Z,30.98
2018-05-23T14:10:50.909Z,30.93
2018-05-23T14:13:18.605Z,30.69
2018-05-23T14:15:46.223Z,30.42
2018-05-23T14:18:13.852Z,30.45
2018-05-23T14:20:41.557Z,30.37
2018-05-23T14:23:12.360Z,30.04
2018-05-23T14:25:40.027Z,29.86
2018-05-23T14:28:07.704Z,29.51
2018-05-23T14:30:35.346Z,29.24
2018-05-23T14:33:02.917Z,29.13
2018-05-23T14:35:30.529Z,29.10
2018-05-23T14:37:58.175Z,28.99
2018-05-23T14:40:25.728Z,28.99
2018-05-23T14:42:53.292Z,28.89
2018-05-23T14:45:20.921Z,28.86
2018-05-23T14:47:48.568Z,28.85
2018-05-23T14:50:16.136Z,28.85
2018-05-23T14:52:43.784Z,28.83
2018-05-23T14:55:11.380Z,28.71
2018-05-23T14:57:39.745Z,28.56
2018-05-23T15:00:07.333Z,28.44
2018-05-23T15:02:35.016Z,28.38
2018-05-23T15:05:02.653Z,28.23
2018-05-23T15:07:30.312Z,28.27
2018-05-23T15:09:57.967Z,28.16
2018-05-23T15:12:25.839Z,28.08
2018-05-23T15:14:53.584Z,28.24
2018-05-23T15:17:21.175Z,28.32
2018-05-23T15:19:48.849Z,28.35
2018-05-23T15:22:18.312Z,28.43
2018-05-23T15:24:45.883Z,28.50
2018-05-23T15:27:13.550Z,28.42
2018-05-23T15:29:41.072Z,28.40
2018-05-23T15:32:08.641Z,28.26
2018-05-23T15:34:36.233Z,28.19
2018-05-23T15:37:03.787Z,28.12
2018-05-23T15:39:31.360Z,28.05
2018-05-23T15:41:58.939Z,27.82
2018-05-23T15:44:26.557Z,27.78
2018-05-23T15:46:54.226Z,27.69
2018-05-23T15:49:21.928Z,27.51
2018-05-23T15:51:49.536Z,27.45
2018-05-23T15:54:17.117Z,27.41
2018-05-23T15:56:44.760Z,27.28
2018-05-23T15:59:12.416Z,27.26
2018-05-23T16:01:39.980Z,27.18
2018-05-23T16:04:07.592Z,27.10
2018-05-23T16:06:35.156Z,27.00
2018-05-23T16:09:02.848Z,26.90
2018-05-23T16:11:30.417Z,26.91
2018-05-23T16:13:58.060Z,26.84
2018-05-23T16:16:25.845Z,26.93
2018-05-23T16:18:53.397Z,26.92
2018-05-23T16:21:20.964Z,26.91
2018-05-23T16:23:48.528Z,26.93
2018-05-23T16:26:16.082Z,26.93
2018-05-23T16:28:43.625Z,26.99
2018-05-23T16:31:11.232Z,26.99
2018-05-23T16:33:38.803Z,26.97
2018-05-23T16:36:06.384Z,26.88
2018-05-23T16:38:34.035Z,26.76
2018-05-23T16:41:01.596Z,26.65
2018-05-23T16:43:29.209Z,26.58
2018-05-23T16:45:56.829Z,26.54
2018-05-23T16:48:24.412Z,26.49
2018-05-23T16:50:52.019Z,26.47
2018-05-23T16:53:19.600Z,26.47
2018-05-23T16:55:47.164Z,26.40
2018-05-23T16:58:14.716Z,26.33
2018-05-23T17:00:42.305Z,26.25
2018-05-23T17:03:09.932Z,26.16
2018-05-23T17:05:37.512Z,26.12
2018-05-23T17:08:05.140Z,26.02
2018-05-23T17:10:32.797Z,26.00
2018-05-23T17:13:00.456Z,25.88
2018-05-23T17:15:28.028Z,25.77
2018-05-23T17:17:55.636Z,25.69
2018-05-23T17:20:30.141Z,25.63
2018-05-23T17:22:58.748Z,25.56
2018-05-23T17:25:26.348Z,25.44
2018-05-23T17:27:54.775Z,25.32
2018-05-23T17:30:22.452Z,25.17
2018-05-23T17:32:50.065Z,25.03
2018-05-23T17:35:17.649Z,24.90
2018-05-23T17:37:45.234Z,24.76
2018-05-23T17:40:12.923Z,24.63
2018-05-23T17:42:40.443Z,24.52
2018-05-23T17:45:08.106Z,24.41
2018-05-23T17:47:35.636Z,24.32
2018-05-23T17:50:03.206Z,24.24
2018-05-23T17:52:30.820Z,24.07
2018-05-23T17:54:58.403Z,23.98
2018-05-23T17:57:26.046Z,23.92
2018-05-23T17:59:53.610Z,23.83
2018-05-23T18:02:21.256Z,23.70
2018-05-23T18:04:48.838Z,23.59
2018-05-23T18:07:16.506Z,23.51
2018-05-23T18:09:44.092Z,23.45
2018-05-23T18:12:11.765Z,23.33
2018-05-23T18:14:39.352Z,23.24
2018-05-23T18:17:06.936Z,23.18
2018-05-23T18:19:34.528Z,23.09
2018-05-23T18:22:02.153Z,23.02
2018-05-23T18:24:29.777Z,22.95
2018-05-23T18:26:57.444Z,22.89
2018-05-23T18:29:25.164Z,22.83
2018-05-23T18:31:52.785Z,22.76
2018-05-23T18:34:20.377Z,22.70
2018-05-23T18:36:48.220Z,22.62
2018-05-23T18:39:15.841Z,22.53
2018-05-23T18:41:43.521Z,22.42
2018-05-23T18:44:11.157Z,22.35
2018-05-23T18:46:39.476Z,22.24
2018-05-23T18:49:07.124Z,22.18
2018-05-23T18:51:34.786Z,22.12
2018-05-23T18:54:02.379Z,22.07
2018-05-23T18:56:30.004Z,22.01
2018-05-23T18:58:57.600Z,21.91
2018-05-23T19:01:25.173Z,21.87
2018-05-23T19:03:52.738Z,21.82
2018-05-23T19:06:20.415Z,21.73
2018-05-23T19:08:48.007Z,21.69
2018-05-23T19:11:15.617Z,21.62
2018-05-23T19:13:43.229Z,21.59
2018-05-23T19:16:10.852Z,21.54
2018-05-23T19:18:38.543Z,21.50
2018-05-23T19:21:06.089Z,21.46
2018-05-23T19:23:33.723Z,21.41
2018-05-23T19:26:01.511Z,21.39
2018-05-23T19:28:29.093Z,21.38
2018-05-23T19:30:56.757Z,21.33
2018-05-23T19:33:24.343Z,21.29
2018-05-23T19:35:52.000Z,21.24
2018-05-23T19:38:19.611Z,21.17
2018-05-23T19:40:47.201Z,21.18
2018-05-23T19:43:14.857Z,21.14
2018-05-23T19:45:42.455Z,21.09
2018-05-23T19:48:10.077Z,21.05
2018-05-23T19:50:37.672Z,21.02
2018-05-23T19:53:05.349Z,21.03
2018-05-23T19:55:32.965Z,20.99
2018-05-23T19:58:00.584Z,20.96
2018-05-23T20:00:28.215Z,20.92
2018-05-23T20:02:55.834Z,20.90
2018-05-23T20:05:23.417Z,20.86
2018-05-23T20:07:51.124Z,20.86
2018-05-23T20:10:18.645Z,20.82
2018-05-23T20:12:46.267Z,20.77
2018-05-23T20:15:13.893Z,20.73
2018-05-23T20:17:41.604Z,20.69
2018-05-23T20:20:09.245Z,20.62
2018-05-23T20:22:36.916Z,20.59
2018-05-23T20:25:04.572Z,20.53
2018-05-23T20:27:32.186Z,20.49
2018-05-23T20:29:59.807Z,20.43
2018-05-23T20:32:27.471Z,20.39
2018-05-23T20:34:55.194Z,20.38
2018-05-23T20:37:22.824Z,20.33
2018-05-23T20:39:50.421Z,20.28
2018-05-23T20:42:18.076Z,20.26
2018-05-23T20:44:45.680Z,20.21
2018-05-23T20:47:13.361Z,20.16
2018-05-23T20:49:40.918Z,20.12
2018-05-23T20:52:09.419Z,20.09
2018-05-23T20:54:37.065Z,20.04
2018-05-23T20:57:04.798Z,20.00
2018-05-23T20:59:33.092Z,19.98
2018-05-23T21:02:00.715Z,19.98
2018-05-23T21:04:28.537Z,19.95
2018-05-23T21:06:56.184Z,19.95
2018-05-23T21:09:23.875Z,19.94
2018-05-23T21:11:52.244Z,19.93
2018-05-23T21:14:19.856Z,19.84
2018-05-23T21:16:47.611Z,19.74
2018-05-23T21:19:15.234Z,19.67
2018-05-23T21:21:42.948Z,19.61
2018-05-23T21:24:10.709Z,19.55
2018-05-23T21:26:38.321Z,19.46
2018-05-23T21:29:06.680Z,19.39
2018-05-23T21:31:34.417Z,19.33
2018-05-23T21:34:02.129Z,19.26
2018-05-23T21:36:29.844Z,19.16
2018-05-23T21:38:57.595Z,19.06
2018-05-23T21:41:25.535Z,19.01
2018-05-23T21:43:53.240Z,18.96
2018-05-23T21:46:20.896Z,18.91
2018-05-23T21:48:48.561Z,18.85
2018-05-23T21:51:16.161Z,18.78
2018-05-23T21:53:44.412Z,18.70
2018-05-23T21:56:12.073Z,18.64
2018-05-23T21:58:39.677Z,18.59
2018-05-23T22:01:07.370Z,18.52
2018-05-23T22:03:35.225Z,18.49
2018-05-23T22:06:03.284Z,18.47
2018-05-23T22:08:31.632Z,18.43
2018-05-23T22:10:59.228Z,18.40
2018-05-23T22:13:27.182Z,18.36
2018-05-23T22:15:55.469Z,18.31
2018-05-23T22:18:23.036Z,18.27
2018-05-23T22:20:50.699Z,18.21
2018-05-23T22:23:18.357Z,18.13
2018-05-23T22:25:46.042Z,18.05
2018-05-23T22:28:13.750Z,18.01
2018-05-23T22:30:41.652Z,17.97
2018-05-23T22:33:10.053Z,17.91
2018-05-23T22:35:37.696Z,17.84
2018-05-23T22:38:06.345Z,17.82
2018-05-23T22:40:33.908Z,17.83
2018-05-23T22:43:04.477Z,17.84
2018-05-23T22:45:32.423Z,17.87
2018-05-23T22:48:00.009Z,17.91
2018-05-23T22:50:28.565Z,17.91
2018-05-23T22:52:56.212Z,17.84
2018-05-23T22:55:23.803Z,17.77
2018-05-23T22:57:51.408Z,17.71
2018-05-23T23:00:23.982Z,17.68
2018-05-23T23:02:51.712Z,17.67
2018-05-23T23:05:19.425Z,17.68
2018-05-23T23:07:47.143Z,17.66
2018-05-23T23:10:14.829Z,17.63
2018-05-23T23:12:42.786Z,17.61
2018-05-23T23:15:10.530Z,17.58
2018-05-23T23:17:38.244Z,17.54
2018-05-23T23:20:06.076Z,17.48
2018-05-23T23:22:39.983Z,17.39
2018-05-23T23:25:07.552Z,17.30
2018-05-23T23:27:35.117Z,17.25
2018-05-23T23:30:02.749Z,17.19
2018-05-23T23:32:31.360Z,17.11
2018-05-23T23:34:59.772Z,16.99
2018-05-23T23:37:27.401Z,16.89
2018-05-23T23:39:55.071Z,16.80
2018-05-23T23:42:22.736Z,16.67
2018-05-23T23:44:50.453Z,16.60
2018-05-23T23:47:18.125Z,16.58
2018-05-23T23:49:46.548Z,16.52
2018-05-23T23:52:14.217Z,16.47
2018-05-23T23:54:42.151Z,16.48
2018-05-23T23:57:09.785Z,16.48
2018-05-23T23:59:38.361Z,16.47
